createdAt,value
2023-01-07T00:00:24.835Z,2.83
2023-01-07T00:03:12.158Z,3.57
2023-01-07T00:06:03.077Z,2.70
2023-01-07T00:08:51.856Z,2.73
2023-01-07T00:11:40.647Z,1.87
2023-01-07T00:14:28.125Z,2.40
2023-01-07T00:17:16.025Z,1.77
2023-01-07T00:20:03.515Z,2.43
2023-01-07T00:22:52.297Z,2.23
2023-01-07T00:25:40.185Z,2.03
2023-01-07T00:28:28.090Z,2.97
2023-01-07T00:31:18.731Z,2.63
2023-01-07T00:34:06.301Z,2.10
2023-01-07T00:37:13.781Z,1.70
2023-01-07T00:40:01.159Z,2.17
2023-01-07T00:42:55.469Z,3.03
2023-01-07T00:45:42.841Z,1.60
2023-01-07T00:48:30.753Z,2.17
2023-01-07T00:51:18.792Z,2.77
2023-01-07T00:54:06.683Z,3.13
2023-01-07T00:56:54.671Z,2.57
2023-01-07T00:59:42.110Z,2.00
2023-01-07T01:02:30.064Z,2.13
2023-01-07T01:05:18.073Z,1.70
2023-01-07T01:08:05.377Z,2.80
2023-01-07T01:10:53.278Z,2.17
2023-01-07T01:13:41.574Z,1.83
2023-01-07T01:16:29.452Z,1.90
2023-01-07T01:19:17.536Z,2.20
2023-01-07T01:22:04.954Z,1.73
2023-01-07T01:24:52.842Z,1.80
2023-01-07T01:27:40.251Z,3.23
2023-01-07T01:30:27.972Z,3.03
2023-01-07T01:33:16.456Z,3.80
2023-01-07T01:36:05.195Z,2.40
2023-01-07T01:38:53.074Z,3.47
2023-01-07T01:41:41.130Z,2.37
2023-01-07T01:44:47.756Z,2.90
2023-01-07T01:47:35.127Z,2.50
2023-01-07T01:50:31.335Z,2.57
2023-01-07T01:53:26.640Z,2.23
2023-01-07T01:56:17.447Z,2.33
2023-01-07T01:59:09.746Z,2.43
2023-01-07T02:01:58.163Z,2.70
2023-01-07T02:04:45.716Z,2.33
2023-01-07T02:07:33.594Z,2.57
2023-01-07T02:10:23.359Z,2.33
2023-01-07T02:13:13.747Z,1.90
2023-01-07T02:16:01.429Z,2.70
2023-01-07T02:18:58.189Z,3.07
2023-01-07T02:21:50.844Z,2.33
2023-01-07T02:24:40.995Z,2.10
2023-01-07T02:27:35.528Z,3.63
2023-01-07T02:30:34.350Z,5.30
2023-01-07T02:33:44.889Z,2.10
2023-01-07T02:36:32.795Z,2.23
2023-01-07T02:39:30.565Z,2.07
2023-01-07T02:42:24.678Z,2.67
2023-01-07T02:45:16.616Z,2.10
2023-01-07T02:48:06.808Z,2.37
2023-01-07T02:50:54.686Z,2.73
2023-01-07T02:53:42.872Z,2.70
2023-01-07T02:56:51.048Z,2.03
2023-01-07T02:59:58.211Z,6.20
2023-01-07T03:02:52.899Z,1.70
2023-01-07T03:05:52.281Z,3.53
2023-01-07T03:08:39.701Z,2.00
2023-01-07T03:11:31.758Z,2.33
2023-01-07T03:14:20.721Z,2.47
2023-01-07T03:17:10.581Z,2.33
2023-01-07T03:20:00.201Z,1.93
2023-01-07T03:22:48.014Z,2.43
2023-01-07T03:25:37.596Z,2.93
2023-01-07T03:28:28.869Z,3.17
2023-01-07T03:31:16.452Z,5.93
2023-01-07T03:34:06.000Z,5.33
2023-01-07T03:37:01.650Z,2.47
2023-01-07T03:39:50.354Z,2.40
2023-01-07T03:42:40.408Z,4.23
2023-01-07T03:45:28.964Z,2.10
2023-01-07T03:48:16.764Z,1.97
2023-01-07T03:51:04.178Z,2.13
2023-01-07T03:53:52.065Z,2.60
2023-01-07T03:56:39.458Z,4.50
2023-01-07T03:59:27.157Z,2.40
2023-01-07T04:02:14.752Z,4.13
2023-01-07T04:05:02.706Z,2.80
2023-01-07T04:07:50.571Z,2.93
2023-01-07T04:10:37.970Z,3.47
2023-01-07T04:13:26.147Z,2.23
2023-01-07T04:16:13.714Z,3.10
2023-01-07T04:19:01.564Z,2.30
2023-01-07T04:21:49.008Z,2.43
2023-01-07T04:24:36.949Z,2.60
2023-01-07T04:27:24.340Z,3.40
2023-01-07T04:30:11.984Z,4.17
2023-01-07T04:33:01.188Z,2.43
2023-01-07T04:35:49.312Z,2.90
2023-01-07T04:38:37.208Z,3.37
2023-01-07T04:41:24.740Z,2.30
2023-01-07T04:44:12.671Z,4.33
2023-01-07T04:47:00.115Z,2.60
2023-01-07T04:49:48.108Z,3.10
2023-01-07T04:52:36.087Z,3.57
2023-01-07T04:55:23.486Z,2.50
2023-01-07T04:58:11.371Z,2.47
2023-01-07T05:00:59.792Z,3.00
2023-01-07T05:03:47.627Z,2.50
2023-01-07T05:06:35.028Z,2.37
2023-01-07T05:09:22.878Z,3.70
2023-01-07T05:12:10.262Z,2.77
2023-01-07T05:14:57.654Z,2.27
2023-01-07T05:17:45.568Z,3.07
2023-01-07T05:20:32.944Z,3.80
2023-01-07T05:23:20.820Z,2.67
2023-01-07T05:26:08.572Z,2.80
2023-01-07T05:28:56.001Z,4.20
2023-01-07T05:31:43.406Z,2.50
2023-01-07T05:34:30.873Z,3.03
2023-01-07T05:37:18.340Z,3.63
2023-01-07T05:40:07.303Z,3.87
2023-01-07T05:42:54.722Z,2.73
2023-01-07T05:45:44.979Z,2.00
2023-01-07T05:48:32.752Z,2.37
2023-01-07T05:51:20.201Z,4.43
2023-01-07T05:54:08.207Z,3.20
2023-01-07T05:56:56.055Z,3.87
2023-01-07T05:59:43.435Z,3.17
2023-01-07T06:02:31.348Z,4.07
2023-01-07T06:05:19.015Z,2.47
2023-01-07T06:08:07.126Z,3.37
2023-01-07T06:10:55.285Z,3.20
2023-01-07T06:13:43.214Z,6.43
2023-01-07T06:16:30.578Z,3.03
2023-01-07T06:19:18.462Z,3.43
2023-01-07T06:22:06.204Z,3.57
2023-01-07T06:24:54.238Z,4.13
2023-01-07T06:27:42.324Z,3.37
2023-01-07T06:30:30.187Z,3.23
2023-01-07T06:33:17.586Z,3.73
2023-01-07T06:36:05.697Z,4.80
2023-01-07T06:38:53.084Z,2.83
2023-01-07T06:41:40.945Z,2.57
2023-01-07T06:44:28.329Z,2.97
2023-01-07T06:47:16.292Z,4.10
2023-01-07T06:50:04.211Z,3.33
2023-01-07T06:52:51.615Z,3.90
2023-01-07T06:55:39.495Z,4.47
2023-01-07T06:58:26.713Z,3.47
2023-01-07T07:01:14.703Z,4.13
2023-01-07T07:04:01.977Z,5.20
2023-01-07T07:06:49.848Z,2.90
2023-01-07T07:09:37.033Z,2.70
2023-01-07T07:12:24.896Z,4.13
2023-01-07T07:15:12.867Z,3.93
2023-01-07T07:18:00.268Z,3.97
2023-01-07T07:20:48.396Z,3.07
2023-01-07T07:23:35.585Z,2.60
2023-01-07T07:26:23.251Z,4.13
2023-01-07T07:29:10.990Z,10.70
2023-01-07T07:31:58.920Z,6.97
2023-01-07T07:34:46.804Z,6.70
2023-01-07T07:37:34.196Z,3.10
2023-01-07T07:40:21.692Z,3.93
2023-01-07T07:43:11.593Z,5.13
2023-01-07T07:46:00.551Z,3.53
2023-01-07T07:48:49.638Z,3.43
2023-01-07T07:51:37.039Z,3.37
2023-01-07T07:54:24.498Z,4.40
2023-01-07T07:57:12.049Z,4.97
2023-01-07T07:59:59.894Z,8.17
2023-01-07T08:02:47.266Z,4.43
2023-01-07T08:05:34.852Z,8.53
2023-01-07T08:08:22.292Z,15.37
2023-01-07T08:11:10.334Z,5.50
2023-01-07T08:13:57.760Z,4.97
2023-01-07T08:16:45.200Z,6.67
2023-01-07T08:19:33.163Z,7.80
2023-01-07T08:22:21.116Z,3.87
2023-01-07T08:25:08.593Z,3.70
2023-01-07T08:27:58.810Z,4.60
2023-01-07T08:30:46.254Z,4.63
2023-01-07T08:33:37.887Z,3.00
2023-01-07T08:36:25.748Z,5.53
2023-01-07T08:39:13.291Z,3.53
2023-01-07T08:42:00.747Z,3.13
2023-01-07T08:44:48.328Z,3.57
2023-01-07T08:47:36.484Z,3.73
2023-01-07T08:50:27.345Z,2.83
2023-01-07T08:53:15.247Z,3.83
2023-01-07T08:56:02.921Z,4.07
2023-01-07T08:58:50.336Z,3.10
2023-01-07T09:01:37.859Z,2.33
2023-01-07T09:04:25.395Z,3.43
2023-01-07T09:07:13.469Z,2.67
2023-01-07T09:10:00.854Z,3.13
2023-01-07T09:12:48.560Z,5.33
2023-01-07T09:15:35.931Z,2.63
2023-01-07T09:18:23.615Z,2.60
2023-01-07T09:21:11.002Z,2.00
2023-01-07T09:23:58.904Z,2.03
2023-01-07T09:26:46.282Z,2.17
2023-01-07T09:29:34.175Z,2.77
2023-01-07T09:32:22.106Z,2.10
2023-01-07T09:35:10.479Z,2.93
2023-01-07T09:37:58.166Z,3.80
2023-01-07T09:40:46.185Z,1.90
2023-01-07T09:44:00.128Z,1.80
2023-01-07T09:46:41.480Z,1.48
2023-01-07T09:49:32.369Z,1.83
2023-01-07T09:52:37.923Z,3.38
2023-01-07T09:55:28.709Z,2.80
2023-01-07T09:58:17.804Z,2.10
2023-01-07T10:01:08.071Z,1.58
2023-01-07T10:04:00.672Z,3.92
2023-01-07T10:06:48.096Z,3.47
2023-01-07T10:10:04.955Z,2.55
2023-01-07T10:12:55.648Z,2.53
2023-01-07T10:16:02.648Z,1.83
2023-01-07T10:19:08.702Z,1.92
2023-01-07T10:21:58.233Z,1.95
2023-01-07T10:24:47.981Z,2.22
2023-01-07T10:27:38.008Z,2.40
2023-01-07T10:30:28.111Z,2.00
2023-01-07T10:33:27.216Z,3.38
2023-01-07T10:36:25.854Z,2.30
2023-01-07T10:39:16.521Z,3.00
2023-01-07T10:42:22.916Z,2.10
2023-01-07T10:45:10.852Z,3.45
2023-01-07T10:48:00.993Z,2.25
2023-01-07T10:50:53.199Z,2.22
2023-01-07T10:53:43.559Z,2.92
2023-01-07T10:56:32.720Z,1.85
2023-01-07T10:59:25.266Z,2.33
2023-01-07T11:02:15.703Z,1.95
2023-01-07T11:05:03.283Z,2.55
2023-01-07T11:07:53.329Z,2.17
2023-01-07T11:10:40.763Z,1.83
2023-01-07T11:13:31.472Z,1.58
2023-01-07T11:16:21.997Z,1.70
2023-01-07T11:19:10.778Z,2.65
2023-01-07T11:21:58.201Z,1.52
2023-01-07T11:24:45.633Z,2.50
2023-01-07T11:27:34.424Z,1.92
2023-01-07T11:30:29.180Z,1.92
2023-01-07T11:34:01.426Z,4.43
2023-01-07T11:36:42.974Z,2.53
2023-01-07T11:39:31.684Z,1.98
2023-01-07T11:42:38.969Z,1.33
2023-01-07T11:45:27.889Z,1.65
2023-01-07T11:48:27.102Z,1.63
2023-01-07T11:51:14.482Z,1.70
2023-01-07T11:54:02.005Z,2.30
2023-01-07T11:56:49.433Z,2.30
2023-01-07T11:59:37.312Z,3.15
2023-01-07T12:02:26.977Z,1.48
2023-01-07T12:05:32.929Z,1.55
2023-01-07T12:08:21.731Z,1.95
2023-01-07T12:11:11.086Z,3.55
2023-01-07T12:14:02.019Z,1.40
2023-01-07T12:16:52.099Z,1.48
2023-01-07T12:19:42.478Z,1.98
2023-01-07T12:22:39.145Z,2.30
2023-01-07T12:25:36.042Z,1.65
2023-01-07T12:28:46.788Z,1.98
2023-01-07T12:31:40.531Z,1.42
2023-01-07T12:34:27.936Z,3.60
2023-01-07T12:37:24.381Z,1.25
2023-01-07T12:40:11.816Z,1.63
2023-01-07T12:43:04.577Z,1.50
2023-01-07T12:45:55.431Z,1.77
2023-01-07T12:48:57.984Z,1.98
2023-01-07T12:51:52.049Z,1.52
2023-01-07T12:54:52.439Z,1.63
2023-01-07T12:57:41.276Z,2.22
2023-01-07T13:00:32.240Z,1.75
2023-01-07T13:03:25.371Z,1.85
2023-01-07T13:06:19.701Z,2.53
2023-01-07T13:09:16.992Z,1.23
2023-01-07T13:12:42.014Z,1.85
2023-01-07T13:15:34.082Z,2.38
2023-01-07T13:18:21.876Z,1.40
2023-01-07T13:21:13.299Z,1.55
2023-01-07T13:24:07.794Z,1.70
2023-01-07T13:26:55.215Z,2.35
2023-01-07T13:29:45.690Z,1.42
2023-01-07T13:32:45.844Z,1.88
2023-01-07T13:35:50.689Z,1.00
2023-01-07T13:38:57.031Z,1.30
2023-01-07T13:41:44.399Z,1.30
2023-01-07T13:44:34.603Z,1.40
2023-01-07T13:47:23.175Z,1.95
2023-01-07T13:50:18.720Z,3.67
2023-01-07T13:53:08.077Z,3.03
2023-01-07T13:56:15.908Z,2.28
2023-01-07T13:59:03.528Z,1.90
2023-01-07T14:02:18.212Z,4.57
2023-01-07T14:05:06.066Z,3.58
2023-01-07T14:07:58.156Z,10.23
2023-01-07T14:10:51.896Z,4.25
2023-01-07T14:13:56.071Z,1.70
2023-01-07T14:16:56.158Z,1.75
2023-01-07T14:19:50.267Z,3.80
2023-01-07T14:22:37.749Z,3.78
2023-01-07T14:25:25.515Z,3.00
2023-01-07T14:28:19.399Z,1.52
2023-01-07T14:31:19.839Z,4.07
2023-01-07T14:34:26.533Z,1.52
2023-01-07T14:37:15.860Z,2.58
2023-01-07T14:40:22.350Z,1.77
2023-01-07T14:43:29.727Z,1.33
2023-01-07T14:46:23.174Z,2.55
2023-01-07T14:49:12.891Z,2.75
2023-01-07T14:52:00.273Z,2.88
2023-01-07T14:54:50.439Z,1.88
2023-01-07T14:57:38.397Z,1.98
2023-01-07T15:00:44.604Z,3.20
2023-01-07T15:03:42.961Z,3.00
2023-01-07T15:06:40.283Z,2.05
2023-01-07T15:09:52.336Z,2.40
2023-01-07T15:12:59.845Z,1.98
2023-01-07T15:16:01.878Z,2.83
2023-01-07T15:18:53.224Z,1.33
2023-01-07T15:21:44.113Z,1.48
2023-01-07T15:24:31.500Z,3.20
2023-01-07T15:27:23.584Z,4.05
2023-01-07T15:30:21.226Z,3.33
2023-01-07T15:33:18.173Z,3.83
2023-01-07T15:36:06.827Z,5.70
2023-01-07T15:38:56.268Z,4.40
2023-01-07T15:41:43.745Z,2.57
2023-01-07T15:44:40.333Z,3.80
2023-01-07T15:47:41.773Z,2.30
2023-01-07T15:50:30.843Z,2.63
2023-01-07T15:53:20.252Z,5.53
2023-01-07T15:56:11.525Z,7.83
2023-01-07T15:58:58.977Z,8.07
2023-01-07T16:01:50.757Z,7.67
2023-01-07T16:04:38.981Z,8.23
2023-01-07T16:07:31.924Z,13.10
2023-01-07T16:10:20.473Z,20.53
2023-01-07T16:13:21.457Z,16.40
2023-01-07T16:16:15.974Z,16.10
2023-01-07T16:19:04.747Z,12.63
2023-01-07T16:21:53.535Z,13.90
2023-01-07T16:24:46.437Z,14.33
2023-01-07T16:27:33.921Z,10.40
2023-01-07T16:30:21.897Z,6.60
2023-01-07T16:33:10.705Z,8.70
2023-01-07T16:36:01.484Z,6.77
2023-01-07T16:38:50.706Z,4.37
2023-01-07T16:41:38.647Z,9.47
2023-01-07T16:44:49.548Z,5.73
2023-01-07T16:47:37.454Z,8.90
2023-01-07T16:50:25.517Z,8.97
2023-01-07T16:53:28.027Z,10.80
2023-01-07T16:56:18.732Z,9.63
2023-01-07T16:59:07.392Z,10.10
2023-01-07T17:01:55.592Z,9.10
2023-01-07T17:04:43.484Z,7.87
2023-01-07T17:07:30.915Z,13.73
2023-01-07T17:10:26.044Z,14.40
2023-01-07T17:13:13.225Z,9.13
2023-01-07T17:16:16.408Z,6.30
2023-01-07T17:19:27.599Z,5.93
2023-01-07T17:22:32.461Z,8.63
2023-01-07T17:25:28.304Z,7.27
2023-01-07T17:28:19.684Z,7.73
2023-01-07T17:31:07.726Z,7.43
2023-01-07T17:33:56.012Z,9.17
2023-01-07T17:36:43.884Z,7.03
2023-01-07T17:39:31.826Z,13.10
2023-01-07T17:42:42.628Z,7.67
2023-01-07T17:45:30.599Z,10.40
2023-01-07T17:48:18.012Z,13.73
2023-01-07T17:51:07.488Z,9.53
2023-01-07T17:53:56.920Z,11.43
2023-01-07T17:56:44.384Z,8.77
2023-01-07T17:59:33.405Z,9.23
2023-01-07T18:02:23.105Z,8.83
2023-01-07T18:05:21.203Z,10.07
2023-01-07T18:08:08.985Z,12.60
2023-01-07T18:11:16.489Z,8.03
2023-01-07T18:14:04.428Z,8.27
2023-01-07T18:16:52.766Z,7.10
2023-01-07T18:19:40.653Z,8.47
2023-01-07T18:22:28.064Z,7.10
2023-01-07T18:25:17.942Z,6.40
2023-01-07T18:28:05.543Z,7.47
2023-01-07T18:30:53.415Z,10.23
2023-01-07T18:33:41.363Z,10.07
2023-01-07T18:36:28.757Z,9.30
2023-01-07T18:39:19.903Z,8.93
2023-01-07T18:42:07.221Z,7.50
2023-01-07T18:44:55.169Z,12.20
2023-01-07T18:47:42.992Z,5.80
2023-01-07T18:50:30.793Z,6.40
2023-01-07T18:53:19.341Z,6.00
2023-01-07T18:56:11.935Z,5.90
2023-01-07T18:58:59.304Z,7.53
2023-01-07T19:01:47.258Z,9.67
2023-01-07T19:04:37.429Z,9.10
2023-01-07T19:07:25.468Z,8.77
2023-01-07T19:10:12.848Z,8.37
2023-01-07T19:13:00.519Z,8.47
2023-01-07T19:15:48.398Z,6.03
2023-01-07T19:18:36.096Z,7.07
2023-01-07T19:21:23.909Z,6.77
2023-01-07T19:24:11.578Z,7.97
2023-01-07T19:26:58.987Z,6.37
2023-01-07T19:29:46.893Z,6.03
2023-01-07T19:32:34.799Z,7.90
2023-01-07T19:35:22.186Z,6.67
2023-01-07T19:38:10.116Z,9.67
2023-01-07T19:40:58.214Z,8.30
2023-01-07T19:43:46.365Z,8.63
2023-01-07T19:46:35.301Z,7.60
2023-01-07T19:49:22.981Z,6.70
2023-01-07T19:52:10.844Z,8.13
2023-01-07T19:54:58.233Z,10.63
2023-01-07T19:57:46.097Z,9.00
2023-01-07T20:00:33.479Z,8.63
2023-01-07T20:03:21.483Z,11.03
2023-01-07T20:06:10.791Z,8.77
2023-01-07T20:08:59.464Z,7.90
2023-01-07T20:11:47.799Z,8.33
2023-01-07T20:14:35.269Z,9.73
2023-01-07T20:17:23.656Z,8.13
2023-01-07T20:20:11.581Z,7.53
2023-01-07T20:22:59.491Z,8.47
2023-01-07T20:25:46.858Z,8.23
2023-01-07T20:28:35.934Z,7.03
2023-01-07T20:31:24.004Z,6.97
2023-01-07T20:34:13.558Z,8.23
2023-01-07T20:37:02.525Z,7.30
2023-01-07T20:39:50.052Z,9.27
2023-01-07T20:42:38.001Z,9.00
2023-01-07T20:45:25.870Z,8.50
2023-01-07T20:48:14.950Z,7.87
2023-01-07T20:51:07.111Z,6.90
2023-01-07T20:53:54.544Z,5.90
2023-01-07T20:56:42.543Z,6.13
2023-01-07T20:59:29.715Z,6.17
2023-01-07T21:02:18.257Z,4.60
2023-01-07T21:05:06.037Z,5.53
2023-01-07T21:07:54.359Z,4.00
2023-01-07T21:10:43.138Z,6.63
2023-01-07T21:13:31.099Z,8.10
2023-01-07T21:16:19.055Z,5.83
2023-01-07T21:19:06.954Z,7.03
2023-01-07T21:21:54.556Z,6.17
2023-01-07T21:24:42.439Z,6.97
2023-01-07T21:27:29.947Z,6.00
2023-01-07T21:30:18.649Z,5.00
2023-01-07T21:33:06.327Z,3.97
2023-01-07T21:35:54.193Z,4.90
2023-01-07T21:38:41.639Z,3.27
2023-01-07T21:41:29.543Z,5.77
2023-01-07T21:44:17.095Z,6.00
2023-01-07T21:47:04.693Z,4.27
2023-01-07T21:49:53.019Z,4.83
2023-01-07T21:52:40.411Z,4.23
2023-01-07T21:55:28.010Z,3.57
2023-01-07T21:58:15.556Z,5.43
2023-01-07T22:01:03.499Z,4.43
2023-01-07T22:03:50.905Z,5.47
2023-01-07T22:06:38.809Z,7.93
2023-01-07T22:09:26.304Z,7.90
2023-01-07T22:12:14.374Z,5.00
2023-01-07T22:15:02.252Z,5.50
2023-01-07T22:17:49.951Z,5.57
2023-01-07T22:20:37.340Z,5.20
2023-01-07T22:23:24.812Z,3.77
2023-01-07T22:26:12.762Z,3.57
2023-01-07T22:29:03.320Z,5.03
2023-01-07T22:31:52.764Z,3.27
2023-01-07T22:34:40.607Z,4.23
2023-01-07T22:37:28.086Z,5.07
2023-01-07T22:40:16.088Z,3.63
2023-01-07T22:43:08.369Z,3.50
2023-01-07T22:45:58.038Z,4.70
2023-01-07T22:48:45.457Z,3.67
2023-01-07T22:51:37.966Z,4.10
2023-01-07T22:54:26.856Z,5.10
2023-01-07T22:57:14.709Z,5.20
2023-01-07T23:00:02.401Z,4.77
2023-01-07T23:02:50.302Z,4.87
2023-01-07T23:05:39.658Z,3.67
2023-01-07T23:08:27.235Z,4.07
2023-01-07T23:11:34.666Z,4.43
2023-01-07T23:14:23.429Z,4.10
2023-01-07T23:17:10.854Z,4.20
2023-01-07T23:19:58.719Z,3.30
2023-01-07T23:22:46.126Z,4.07
2023-01-07T23:25:34.174Z,4.10
2023-01-07T23:28:21.562Z,3.00
2023-01-07T23:31:10.592Z,4.00
2023-01-07T23:33:58.531Z,3.67
2023-01-07T23:36:46.011Z,7.40
2023-01-07T23:39:33.957Z,3.60
2023-01-07T23:42:21.361Z,5.30
2023-01-07T23:45:09.572Z,4.93
2023-01-07T23:47:57.041Z,5.50
2023-01-07T23:50:44.950Z,4.30
2023-01-07T23:53:32.395Z,4.27
2023-01-07T23:56:21.450Z,4.60
2023-01-07T23:59:09.815Z,5.87
